Time;durP1;ratioP1;P1;durP2;ratioP2;P2;SDS_P1;SDS_P2;PMS_P1;PMS_P2;Temp;Humidity;BMP_temperature;BMP_pressure;BME280_temperature;BME280_humidity;BME280_pressure;Samples;Min_cycle;Max_cycle;Signal;HPM_P1;HPM_P2
2024/01/28 00:01:22;;;;;;;18.80;6.10;;;;;;;2.14;86.37;101607.09;103442;1250;139170;-69
2024/01/28 00:04:00;;;;;;;20.50;6.60;;;;;;;2.13;86.45;101611.18;102775;1250;1002955;-67
2024/01/28 00:06:27;;;;;;;21.70;6.00;;;;;;;2.14;86.62;101610.01;103553;1253;107658;-66
2024/01/28 00:08:54;;;;;;;21.10;6.70;;;;;;;2.16;86.66;101611.45;103484;1253;137617;-66
2024/01/28 00:11:21;;;;;;;27.20;7.40;;;;;;;2.19;86.86;101615.13;103490;1255;109718;-66
2024/01/28 00:13:48;;;;;;;21.60;6.50;;;;;;;2.20;86.72;101620.63;103307;1252;137587;-67
2024/01/28 00:16:16;;;;;;;21.20;6.60;;;;;;;2.22;86.74;101620.16;103510;1255;96438;-67
2024/01/28 00:18:44;;;;;;;25.70;7.10;;;;;;;2.21;86.74;101618.27;103530;1250;108329;-66
2024/01/28 00:21:11;;;;;;;23.30;7.40;;;;;;;2.21;86.71;101624.45;103367;1250;138136;-68
2024/01/28 00:23:37;;;;;;;17.20;6.20;;;;;;;2.18;86.84;101630.71;103643;1250;110011;-69
2024/01/28 00:26:05;;;;;;;21.60;7.00;;;;;;;2.14;86.69;101637.30;103378;1250;138347;-68
2024/01/28 00:28:32;;;;;;;22.50;7.40;;;;;;;2.08;86.77;101640.60;103519;1253;98530;-69
2024/01/28 00:30:58;;;;;;;22.10;6.90;;;;;;;2.04;86.89;101646.85;103529;1250;107497;-67
2024/01/28 00:33:25;;;;;;;19.80;6.40;;;;;;;2.02;86.87;101647.14;103497;1251;138400;-66
2024/01/28 00:35:52;;;;;;;23.80;7.70;;;;;;;2.04;87.16;101653.71;103567;1250;109407;-68
2024/01/28 00:38:19;;;;;;;19.70;7.00;;;;;;;2.07;87.16;101656.36;103417;1250;137885;-67
2024/01/28 00:40:46;;;;;;;22.40;7.10;;;;;;;2.12;87.32;101661.44;103538;1251;96694;-68
2024/01/28 00:43:13;;;;;;;24.60;7.70;;;;;;;2.12;87.24;101666.27;103614;1250;108080;-66
2024/01/28 00:45:41;;;;;;;22.30;7.60;;;;;;;2.12;87.12;101672.94;101931;1253;1003003;-67
2024/01/28 00:48:08;;;;;;;22.10;8.10;;;;;;;2.15;87.33;101673.02;103580;1250;109756;-68
2024/01/28 00:50:35;;;;;;;24.10;7.70;;;;;;;2.15;87.11;101676.80;103371;1250;137363;-66
2024/01/28 00:53:02;;;;;;;25.30;6.90;;;;;;;2.11;87.21;101677.73;103603;1250;96444;-67
2024/01/28 00:55:31;;;;;;;23.00;7.50;;;;;;;2.09;87.31;101672.36;103400;1250;138328;-67
2024/01/28 00:57:58;;;;;;;20.70;7.20;;;;;;;2.09;87.21;101673.73;103572;1250;96345;-67
2024/01/28 01:00:27;;;;;;;23.30;6.90;;;;;;;2.07;86.96;101679.17;103523;1253;108994;-66
2024/01/28 01:02:54;;;;;;;23.80;7.80;;;;;;;2.02;87.05;101674.75;104059;1251;138036;-66
2024/01/28 01:05:21;;;;;;;20.20;6.80;;;;;;;2.03;86.99;101680.61;103593;1255;96974;-68
2024/01/28 01:07:48;;;;;;;23.50;7.10;;;;;;;1.99;87.07;101683.79;103449;1250;138524;-68
2024/01/28 01:10:16;;;;;;;26.10;7.50;;;;;;;1.98;87.34;101684.10;103606;1250;96447;-67
2024/01/28 01:12:43;;;;;;;24.90;7.10;;;;;;;2.00;87.19;101685.52;103602;1250;110971;-67
2024/01/28 01:15:11;;;;;;;22.60;7.70;;;;;;;2.00;87.14;101686.54;103426;1255;138437;-67
2024/01/28 01:17:38;;;;;;;22.90;7.60;;;;;;;1.99;87.24;101686.19;103693;1250;96495;-67
2024/01/28 01:20:07;;;;;;;22.90;7.60;;;;;;;1.94;87.14;101684.13;103483;1250;137231;-67
2024/01/28 01:22:34;;;;;;;22.60;7.30;;;;;;;1.91;87.20;101687.85;103553;1250;96538;-67
2024/01/28 01:25:01;;;;;;;20.80;7.90;;;;;;;1.90;87.12;101687.46;103583;1256;113336;-67
2024/01/28 01:27:28;;;;;;;24.70;8.00;;;;;;;1.88;87.17;101682.80;103412;1254;139192;-67
2024/01/28 01:29:55;;;;;;;20.90;7.60;;;;;;;1.87;87.33;101682.61;103619;1256;96322;-66
2024/01/28 01:32:22;;;;;;;21.40;8.20;;;;;;;1.89;87.40;101679.90;103454;1250;137459;-67
2024/01/28 01:34:49;;;;;;;23.80;7.70;;;;;;;1.91;87.40;101684.05;103591;1250;96580;-67
2024/01/28 01:37:16;;;;;;;23.00;8.60;;;;;;;1.89;87.42;101683.67;103577;1250;109943;-67
2024/01/28 01:39:43;;;;;;;28.50;8.10;;;;;;;1.86;87.03;101681.52;103508;1255;108653;-67
2024/01/28 01:42:10;;;;;;;27.00;8.50;;;;;;;1.80;86.92;101680.70;103631;1253;96501;-68
2024/01/28 01:44:37;;;;;;;28.90;9.30;;;;;;;1.73;86.90;101684.95;103495;1250;137867;-68
2024/01/28 01:47:04;;;;;;;21.40;7.60;;;;;;;1.64;87.05;101685.42;103546;1253;96514;-67
2024/01/28 01:49:32;;;;;;;19.90;7.90;;;;;;;1.58;87.22;101686.25;103397;1253;138184;-66
2024/01/28 01:51:59;;;;;;;28.70;8.40;;;;;;;1.50;87.34;101688.30;103547;1250;107142;-66
2024/01/28 01:54:26;;;;;;;20.00;7.20;;;;;;;1.47;87.41;101691.80;103548;1255;96533;-66
2024/01/28 01:56:53;;;;;;;24.30;8.90;;;;;;;1.46;87.63;101690.93;103417;1254;137782;-66
2024/01/28 01:59:21;;;;;;;28.60;8.30;;;;;;;1.44;87.70;101692.24;103568;1251;96523;-66
2024/01/28 02:01:48;;;;;;;24.60;8.70;;;;;;;1.44;87.75;101698.05;103357;1253;137318;-66
2024/01/28 02:04:15;;;;;;;24.00;8.70;;;;;;;1.43;87.91;101692.70;103526;1251;107600;-66
2024/01/28 02:06:42;;;;;;;28.30;9.50;;;;;;;1.42;88.16;101694.55;103609;1250;96548;-66
2024/01/28 02:09:09;;;;;;;23.00;8.20;;;;;;;1.39;88.26;101686.94;103437;1255;137187;-66
2024/01/28 02:11:36;;;;;;;25.40;8.20;;;;;;;1.35;88.04;101689.75;103608;1250;96554;-66
2024/01/28 02:14:03;;;;;;;20.80;7.90;;;;;;;1.33;88.46;101688.32;103528;1250;138625;-67
2024/01/28 02:16:30;;;;;;;20.60;7.80;;;;;;;1.33;88.55;101690.03;103318;1253;234610;-66
2024/01/28 02:18:56;;;;;;;24.70;7.90;;;;;;;1.35;88.69;101690.80;100546;1255;1015726;-68
2024/01/28 02:21:24;;;;;;;24.10;8.70;;;;;;;1.41;88.88;101694.20;102758;1250;1003750;-67
2024/01/28 02:23:50;;;;;;;27.40;9.10;;;;;;;1.44;88.93;101692.94;103586;1255;97918;-68
2024/01/28 02:26:17;;;;;;;22.80;7.40;;;;;;;1.46;88.75;101692.64;103458;1250;137138;-65
2024/01/28 02:28:44;;;;;;;28.80;7.70;;;;;;;1.48;88.86;101686.53;103556;1255;108233;-66
2024/01/28 02:31:11;;;;;;;19.90;8.00;;;;;;;1.51;88.90;101688.14;103521;1250;96471;-66
2024/01/28 02:33:38;;;;;;;26.80;7.70;;;;;;;1.50;88.68;101685.70;103487;1255;136988;-67
2024/01/28 02:36:06;;;;;;;27.70;8.00;;;;;;;1.44;88.79;101691.39;103492;1251;96439;-65
2024/01/28 02:38:33;;;;;;;24.80;8.60;;;;;;;1.41;88.83;101690.77;103843;1250;137940;-66
2024/01/28 02:41:00;;;;;;;17.70;6.90;;;;;;;1.41;89.00;101701.58;103520;1255;107785;-66
2024/01/28 02:43:27;;;;;;;15.20;6.20;;;;;;;1.42;89.26;101700.20;103505;1255;138662;-66
2024/01/28 02:45:54;;;;;;;21.70;7.10;;;;;;;1.45;89.33;101706.34;103606;1250;107513;-66
2024/01/28 02:48:21;;;;;;;19.50;6.60;;;;;;;1.54;89.61;101714.10;103587;1255;96431;-66
2024/01/28 02:50:48;;;;;;;23.80;7.30;;;;;;;1.61;89.75;101714.29;103514;1255;137290;-65
2024/01/28 02:53:15;;;;;;;21.00;6.80;;;;;;;1.64;89.53;101725.56;103416;1257;108605;-68
2024/01/28 02:55:42;;;;;;;24.20;7.40;;;;;;;1.68;89.68;101732.68;103504;1250;137700;-67
2024/01/28 02:58:09;;;;;;;25.00;8.00;;;;;;;1.71;89.67;101735.34;103529;1250;107201;-68
2024/01/28 03:04:06;;;;;;;18.10;6.60;;;;;;;1.70;89.54;101744.92;101691;1266;108429;-66
2024/01/28 03:06:33;;;;;;;21.90;6.80;;;;;;;1.71;89.56;101748.19;102560;1270;107829;-66
2024/01/28 03:09:00;;;;;;;20.20;6.80;;;;;;;1.73;89.85;101756.65;102290;1267;140472;-67
2024/01/28 03:11:28;;;;;;;20.00;6.50;;;;;;;1.82;89.98;101761.52;102428;1267;107256;-66
2024/01/28 03:13:55;;;;;;;23.60;7.30;;;;;;;1.91;90.12;101767.77;102300;1272;137550;-66
2024/01/28 03:16:22;;;;;;;17.10;6.40;;;;;;;1.97;89.91;101772.21;102374;1267;109810;-67
2024/01/28 03:18:48;;;;;;;22.40;7.00;;;;;;;2.01;89.84;101773.05;102422;1272;108702;-66
2024/01/28 03:21:16;;;;;;;22.30;7.10;;;;;;;2.06;89.88;101780.55;102303;1267;137702;-66
2024/01/28 03:23:43;;;;;;;24.40;7.00;;;;;;;2.11;89.84;101778.79;102439;1267;107443;-67
2024/01/28 03:26:11;;;;;;;21.40;6.30;;;;;;;2.14;90.00;101773.35;102289;1267;138696;-66
2024/01/28 03:28:38;;;;;;;20.80;7.10;;;;;;;2.15;89.67;101767.71;102426;1267;110417;-66
2024/01/28 03:31:05;;;;;;;20.70;6.50;;;;;;;2.14;89.58;101770.12;102372;1267;107597;-66
2024/01/28 03:33:32;;;;;;;22.70;6.30;;;;;;;2.17;89.76;101764.87;102264;1267;140357;-67
2024/01/28 03:35:59;;;;;;;17.00;5.90;;;;;;;2.21;89.73;101768.23;102553;1272;108233;-67
2024/01/28 03:38:26;;;;;;;19.10;6.00;;;;;;;2.28;89.76;101770.81;102266;1270;139407;-66
2024/01/28 03:40:53;;;;;;;18.20;6.30;;;;;;;2.34;89.98;101775.98;101745;1267;1002878;-66
2024/01/28 03:43:19;;;;;;;20.20;6.60;;;;;;;2.38;90.01;101777.80;102483;1270;107467;-67
2024/01/28 03:45:47;;;;;;;21.50;6.40;;;;;;;2.42;89.94;101777.38;102318;1267;137398;-66
2024/01/28 03:48:14;;;;;;;21.20;6.30;;;;;;;2.47;89.91;101779.38;102450;1267;107881;-66
2024/01/28 03:50:41;;;;;;;19.90;6.50;;;;;;;2.50;89.87;101781.33;102286;1270;137486;-66
2024/01/28 03:53:08;;;;;;;19.30;5.90;;;;;;;2.51;89.92;101783.23;102427;1267;110887;-67
2024/01/28 03:55:35;;;;;;;17.40;5.40;;;;;;;2.52;89.82;101781.73;102268;1270;138525;-66
2024/01/28 03:58:02;;;;;;;17.60;6.10;;;;;;;2.52;89.78;101779.16;102425;1267;96540;-66
2024/01/28 04:00:29;;;;;;;15.40;5.80;;;;;;;2.53;89.95;101775.61;102409;1268;107453;-65
2024/01/28 04:02:57;;;;;;;14.90;5.00;;;;;;;2.55;89.82;101776.15;102339;1273;138082;-66
2024/01/28 04:05:24;;;;;;;17.00;5.10;;;;;;;2.58;89.89;101785.67;102457;1267;110971;-67
2024/01/28 04:07:51;;;;;;;18.70;5.30;;;;;;;2.61;89.97;101785.56;102301;1273;138070;-67
2024/01/28 04:10:18;;;;;;;16.80;5.80;;;;;;;2.66;90.25;101786.38;102433;1270;96588;-67
2024/01/28 04:12:46;;;;;;;12.80;5.10;;;;;;;2.69;90.01;101785.08;102970;1270;107069;-66
2024/01/28 04:15:13;;;;;;;17.80;6.00;;;;;;;2.75;90.23;101787.13;102496;1268;137924;-66
2024/01/28 04:17:40;;;;;;;20.80;6.40;;;;;;;2.78;89.92;101788.73;102502;1267;112011;-66
2024/01/28 04:20:09;;;;;;;15.90;5.40;;;;;;;2.77;90.18;101791.98;102360;1267;137711;-67
2024/01/28 04:22:36;;;;;;;15.60;5.30;;;;;;;2.77;90.09;101802.45;102651;1267;96481;-67
2024/01/28 04:25:03;;;;;;;15.60;5.40;;;;;;;2.78;90.24;101801.96;102431;1271;107872;-66
2024/01/28 04:27:30;;;;;;;17.10;5.30;;;;;;;2.82;90.38;101807.05;101600;1267;1016182;-67
2024/01/28 04:29:57;;;;;;;16.10;6.10;;;;;;;2.87;90.44;101815.09;102439;1267;109972;-68
2024/01/28 04:32:24;;;;;;;18.50;5.60;;;;;;;2.93;90.50;101819.69;102306;1267;137531;-67
2024/01/28 04:34:50;;;;;;;18.00;5.50;;;;;;;2.98;90.36;101822.55;102470;1267;96480;-67
2024/01/28 04:37:17;;;;;;;17.40;5.70;;;;;;;3.00;90.04;101825.86;102472;1267;108665;-67
2024/01/28 04:39:44;;;;;;;17.10;5.60;;;;;;;2.97;90.16;101829.92;102379;1267;137222;-67
2024/01/28 04:42:11;;;;;;;16.50;5.40;;;;;;;2.93;89.99;101832.05;102490;1270;110481;-66
2024/01/28 04:44:38;;;;;;;18.60;5.60;;;;;;;2.86;90.13;101835.65;102461;1267;138053;-68
2024/01/28 04:47:06;;;;;;;16.10;4.80;;;;;;;2.87;90.39;101833.96;102444;1267;96577;-66
2024/01/28 04:49:35;;;;;;;13.80;4.90;;;;;;;2.84;90.31;101834.75;102376;1267;139122;-67
2024/01/28 04:52:02;;;;;;;14.30;5.10;;;;;;;2.87;90.67;101840.84;102440;1267;96458;-67
2024/01/28 04:54:30;;;;;;;13.60;5.30;;;;;;;2.92;90.75;101847.51;102429;1267;110191;-67
2024/01/28 04:56:57;;;;;;;12.50;5.10;;;;;;;2.95;90.64;101850.33;102437;1267;152054;-67
2024/01/28 04:59:24;;;;;;;16.10;5.80;;;;;;;2.99;90.83;101858.32;102397;1267;96483;-67
2024/01/28 05:01:51;;;;;;;17.30;5.50;;;;;;;3.01;90.81;101861.11;102344;1267;137960;-67
2024/01/28 05:04:18;;;;;;;14.30;4.80;;;;;;;2.99;90.62;101866.92;102417;1267;100455;-66
2024/01/28 05:06:45;;;;;;;14.50;5.40;;;;;;;2.97;90.87;101868.73;102478;1267;109298;-67
2024/01/28 05:09:12;;;;;;;12.40;5.20;;;;;;;2.93;90.95;101872.79;102190;1272;138274;-66
2024/01/28 05:11:39;;;;;;;14.10;5.10;;;;;;;2.92;90.72;101873.45;102445;1267;96458;-66
2024/01/28 05:14:05;;;;;;;15.50;4.70;;;;;;;2.93;91.33;101877.59;102373;1267;138497;-66
2024/01/28 05:16:33;;;;;;;13.70;5.00;;;;;;;2.98;91.33;101884.59;102456;1267;96434;-67
2024/01/28 05:19:01;;;;;;;12.80;5.00;;;;;;;3.02;91.46;101882.80;102598;1269;109264;-67
2024/01/28 05:21:28;;;;;;;12.50;5.30;;;;;;;3.05;91.22;101885.10;102673;1267;137503;-66
2024/01/28 05:23:56;;;;;;;14.40;5.10;;;;;;;3.05;91.51;101880.47;102489;1270;96497;-66
2024/01/28 05:26:22;;;;;;;16.20;5.40;;;;;;;3.05;91.44;101884.41;102369;1271;138363;-66
2024/01/28 05:28:49;;;;;;;14.80;5.10;;;;;;;3.01;91.32;101885.01;102460;1267;97142;-66
2024/01/28 05:31:16;;;;;;;10.50;4.30;;;;;;;2.98;91.42;101883.90;102450;1267;109327;-66
2024/01/28 05:33:45;;;;;;;17.20;4.80;;;;;;;2.98;91.48;101884.40;102270;1267;138006;-66
2024/01/28 05:36:16;;;;;;;11.00;4.60;;;;;;;2.98;91.77;101888.19;102477;1272;96473;-66
2024/01/28 05:38:44;;;;;;;16.20;4.90;;;;;;;3.01;92.00;101887.58;102491;1270;140788;-67
2024/01/28 05:41:11;;;;;;;12.50;4.80;;;;;;;3.02;91.90;101890.34;102402;1267;96466;-66
2024/01/28 05:43:38;;;;;;;12.70;4.90;;;;;;;3.05;91.90;101893.35;102357;1267;137929;-67
2024/01/28 05:46:05;;;;;;;16.00;5.20;;;;;;;3.06;91.99;101898.36;102489;1272;108647;-67
2024/01/28 05:48:33;;;;;;;14.40;5.50;;;;;;;3.10;92.21;101894.33;102537;1267;96473;-66
2024/01/28 05:51:01;;;;;;;12.20;5.50;;;;;;;3.12;92.46;101894.20;102293;1267;137948;-66
2024/01/28 05:53:27;;;;;;;13.70;5.40;;;;;;;3.12;92.41;101899.89;102446;1267;96484;-67
2024/01/28 05:55:54;;;;;;;13.80;5.30;;;;;;;3.10;92.22;101903.10;102339;1272;139602;-66
2024/01/28 05:58:22;;;;;;;12.30;4.90;;;;;;;3.06;92.14;101903.34;102428;1268;107413;-66
2024/01/28 06:00:50;;;;;;;11.40;5.30;;;;;;;3.06;92.60;101907.98;102475;1273;97044;-67
2024/01/28 06:03:16;;;;;;;10.70;5.30;;;;;;;3.04;92.57;101908.61;102793;1269;139727;-67
2024/01/28 06:05:44;;;;;;;12.20;5.10;;;;;;;3.06;92.74;101913.48;102415;1267;96673;-66
2024/01/28 06:08:13;;;;;;;11.90;4.90;;;;;;;3.04;92.71;101916.86;102332;1273;138170;-66
2024/01/28 06:10:40;;;;;;;12.00;5.00;;;;;;;3.04;93.00;101917.73;102375;1270;108482;-65
2024/01/28 06:13:07;;;;;;;15.10;5.60;;;;;;;3.07;92.91;101919.17;103659;1270;94271;-66
2024/01/28 06:15:34;;;;;;;9.80;5.00;;;;;;;3.07;93.11;101926.21;103684;1267;138901;-67
2024/01/28 06:18:02;;;;;;;11.40;5.40;;;;;;;3.11;93.06;101930.10;102656;1267;96480;-66
2024/01/28 06:20:31;;;;;;;12.60;6.20;;;;;;;3.14;93.25;101929.15;102356;1269;138264;-67
2024/01/28 06:22:58;;;;;;;10.90;5.30;;;;;;;3.16;93.15;101931.25;102469;1267;108070;-66
2024/01/28 06:25:25;;;;;;;13.80;5.60;;;;;;;3.18;93.27;101936.80;102439;1270;96446;-66
2024/01/28 06:27:52;;;;;;;10.70;5.50;;;;;;;3.19;93.03;101937.34;102460;1267;108198;-66
2024/01/28 06:30:20;;;;;;;8.40;4.70;;;;;;;3.21;93.15;101936.88;102407;1267;96463;-66
2024/01/28 06:32:47;;;;;;;12.90;5.70;;;;;;;3.27;93.51;101938.08;102415;1266;137806;-66
2024/01/28 06:35:14;;;;;;;15.10;6.50;;;;;;;3.33;93.46;101942.35;102374;1268;106955;-67
2024/01/28 06:37:40;;;;;;;14.50;6.60;;;;;;;3.37;93.15;101941.73;102423;1267;137919;-66
2024/01/28 06:40:10;;;;;;;11.20;5.90;;;;;;;3.34;93.13;101938.39;102457;1267;108963;-66
2024/01/28 06:42:37;;;;;;;10.10;5.20;;;;;;;3.32;93.03;101939.91;102621;1268;96519;-66
2024/01/28 06:45:07;;;;;;;8.80;5.30;;;;;;;3.28;92.92;101944.11;102361;1267;138173;-66
2024/01/28 06:47:35;;;;;;;10.60;5.30;;;;;;;3.26;93.08;101947.69;102627;1267;106572;-67
2024/01/28 06:50:02;;;;;;;11.20;6.10;;;;;;;3.26;93.46;101942.54;102378;1268;138523;-66
2024/01/28 06:52:29;;;;;;;13.00;5.90;;;;;;;3.26;93.55;101943.21;102411;1271;108525;-66
2024/01/28 06:54:56;;;;;;;11.60;5.80;;;;;;;3.30;93.73;101949.84;102471;1267;96487;-67
2024/01/28 06:57:23;;;;;;;10.90;5.50;;;;;;;3.31;93.59;101947.96;102365;1267;138276;-67
2024/01/28 06:59:50;;;;;;;12.50;5.80;;;;;;;3.32;93.64;101950.41;102442;1270;106150;-67
2024/01/28 07:02:17;;;;;;;11.70;5.50;;;;;;;3.33;93.68;101950.77;102281;1267;138362;-67
2024/01/28 07:04:44;;;;;;;12.40;6.40;;;;;;;3.35;93.84;101952.86;102494;1271;108945;-67
2024/01/28 07:07:10;;;;;;;11.80;5.90;;;;;;;3.37;93.99;101955.49;102451;1268;96369;-67
2024/01/28 07:09:37;;;;;;;10.70;5.50;;;;;;;3.37;93.78;101957.22;102359;1270;138260;-67
2024/01/28 07:12:06;;;;;;;8.20;5.10;;;;;;;3.38;93.92;101960.32;102413;1272;107561;-67
2024/01/28 07:14:33;;;;;;;9.30;4.80;;;;;;;3.38;94.21;101961.20;102527;1270;138329;-67
2024/01/28 07:17:01;;;;;;;9.30;4.50;;;;;;;3.39;94.35;101964.65;102462;1271;107526;-68
2024/01/28 07:19:28;;;;;;;8.50;4.30;;;;;;;3.40;94.36;101966.73;102439;1270;96540;-67
2024/01/28 07:21:55;;;;;;;9.30;4.30;;;;;;;3.41;94.65;101969.20;102444;1267;110492;-67
2024/01/28 07:24:22;;;;;;;9.90;4.70;;;;;;;3.46;94.80;101971.21;102609;1267;106873;-66
2024/01/28 07:26:48;;;;;;;9.70;4.70;;;;;;;3.50;94.81;101979.20;102292;1267;139054;-68
2024/01/28 07:29:15;;;;;;;8.60;4.90;;;;;;;3.55;94.94;101981.22;102450;1272;108047;-68
2024/01/28 07:31:42;;;;;;;8.00;4.20;;;;;;;3.65;94.92;101975.45;102318;1272;138698;-68
2024/01/28 07:34:09;;;;;;;9.70;5.00;;;;;;;3.82;95.34;101975.49;102351;1270;110864;-67
2024/01/28 07:36:37;;;;;;;7.20;4.00;;;;;;;3.89;94.95;101967.91;102343;1271;106915;-67
2024/01/28 07:39:06;;;;;;;8.50;4.40;;;;;;;3.97;94.78;101973.26;102288;1267;138218;-68
2024/01/28 07:41:35;;;;;;;7.40;3.90;;;;;;;3.98;94.51;101971.05;102479;1269;108935;-67
2024/01/28 07:44:03;;;;;;;7.90;4.00;;;;;;;3.97;94.23;101970.86;102451;1268;139346;-65
2024/01/28 07:46:30;;;;;;;9.90;4.20;;;;;;;4.03;94.50;101971.67;102807;1267;111078;-66
2024/01/28 07:48:57;;;;;;;5.40;3.40;;;;;;;4.09;94.27;101974.02;102510;1267;107880;-66
2024/01/28 07:51:24;;;;;;;6.60;3.50;;;;;;;4.18;94.21;101975.45;102406;1267;138222;-67
2024/01/28 07:53:52;;;;;;;7.30;3.40;;;;;;;4.34;94.41;101982.48;102424;1271;109032;-66
2024/01/28 07:56:19;;;;;;;6.20;3.50;;;;;;;4.59;94.29;101981.13;102319;1271;137658;-65
2024/01/28 07:58:46;;;;;;;7.30;3.70;;;;;;;4.88;94.07;101979.44;102475;1272;109552;-68
2024/01/28 08:01:13;;;;;;;10.60;3.90;;;;;;;5.27;94.27;101976.34;102378;1271;106885;-69
2024/01/28 08:03:40;;;;;;;9.60;3.70;;;;;;;5.74;94.10;101978.67;102258;1272;137802;-68
2024/01/28 08:06:09;;;;;;;6.10;4.00;;;;;;;6.10;92.87;101978.20;102554;1270;107940;-68
2024/01/28 08:08:36;;;;;;;8.60;3.10;;;;;;;6.39;92.15;101974.95;102489;1270;137737;-69
2024/01/28 08:11:03;;;;;;;7.70;3.20;;;;;;;6.75;91.62;101971.92;102426;1270;109865;-68
2024/01/28 08:13:30;;;;;;;8.40;3.10;;;;;;;7.16;91.07;101972.86;102297;1270;138386;-67
2024/01/28 08:16:01;;;;;;;6.30;2.60;;;;;;;7.62;90.32;101974.80;102383;1268;96606;-70
2024/01/28 08:18:29;;;;;;;8.20;2.90;;;;;;;8.16;90.04;101977.07;102375;1273;107417;-67
2024/01/28 08:20:56;;;;;;;8.40;2.90;;;;;;;8.70;88.77;101975.42;102267;1270;137695;-68
2024/01/28 08:23:23;;;;;;;4.20;2.40;;;;;;;8.86;86.00;101978.60;102442;1270;110698;-68
2024/01/28 08:25:50;;;;;;;6.10;2.70;;;;;;;8.86;84.80;101978.25;102437;1273;138084;-68
2024/01/28 08:28:17;;;;;;;5.70;2.40;;;;;;;9.03;84.21;101976.03;102618;1270;97253;-71
2024/01/28 08:30:45;;;;;;;6.10;2.80;;;;;;;9.19;83.21;101982.98;102376;1273;107457;-69
2024/01/28 08:33:12;;;;;;;5.50;2.40;;;;;;;9.41;82.54;101987.52;102293;1270;138452;-70
2024/01/28 08:35:39;;;;;;;6.60;2.80;;;;;;;9.53;81.86;101994.48;102370;1272;110433;-68
2024/01/28 08:38:08;;;;;;;5.20;2.70;;;;;;;9.59;80.96;102001.07;102242;1272;138590;-68
2024/01/28 08:40:35;;;;;;;5.30;2.90;;;;;;;9.57;80.19;102000.73;102445;1272;98601;-69
2024/01/28 08:43:04;;;;;;;4.30;2.70;;;;;;;9.44;79.09;102000.37;102426;1269;108753;-66
2024/01/28 08:45:31;;;;;;;5.30;2.60;;;;;;;9.45;79.43;101994.64;102601;1269;139172;-67
2024/01/28 08:47:59;;;;;;;6.40;2.40;;;;;;;9.46;79.30;102000.02;102450;1271;110245;-67
2024/01/28 08:50:26;;;;;;;7.90;2.90;;;;;;;9.54;79.38;102000.56;102322;1270;137936;-66
2024/01/28 08:52:53;;;;;;;4.70;2.70;;;;;;;9.52;78.70;102001.41;102426;1272;96584;-66
2024/01/28 08:55:20;;;;;;;9.30;6.40;;;;;;;9.74;78.77;102006.80;102466;1270;107323;-65
2024/01/28 08:57:47;;;;;;;5.60;3.60;;;;;;;10.15;78.65;102010.73;102362;1270;137991;-66
2024/01/28 09:00:16;;;;;;;6.80;2.70;;;;;;;10.46;77.76;102007.89;102377;1271;109528;-67
2024/01/28 09:02:43;;;;;;;30.20;20.80;;;;;;;10.60;76.94;102005.75;102536;1271;137719;-67
2024/01/28 09:05:11;;;;;;;5.40;2.90;;;;;;;11.07;76.97;102004.45;102252;1268;96554;-66
2024/01/28 09:07:38;;;;;;;5.00;2.20;;;;;;;11.41;75.89;102008.23;102482;1273;139162;-65
2024/01/28 09:10:06;;;;;;;6.20;2.80;;;;;;;11.43;74.31;102012.92;102471;1267;96588;-65
2024/01/28 09:12:33;;;;;;;5.00;2.40;;;;;;;11.21;73.68;102010.29;102859;1272;110174;-65
2024/01/28 09:15:01;;;;;;;3.90;2.30;;;;;;;10.97;73.51;102016.19;102192;1273;138519;-67
2024/01/28 09:17:28;;;;;;;5.20;2.30;;;;;;;10.69;73.27;102020.15;102314;1273;96475;-65
2024/01/28 09:19:56;;;;;;;5.50;2.30;;;;;;;10.34;73.18;102023.05;102358;1272;137689;-65
2024/01/28 09:22:23;;;;;;;3.70;2.60;;;;;;;10.01;73.35;102020.67;102345;1267;96715;-66
2024/01/28 09:24:50;;;;;;;5.20;2.40;;;;;;;9.67;73.20;102015.48;102478;1268;111012;-66
2024/01/28 09:27:17;;;;;;;5.30;2.80;;;;;;;9.32;73.77;102010.77;102273;1267;137782;-66
2024/01/28 09:29:44;;;;;;;4.80;2.50;;;;;;;9.03;74.34;102016.10;102448;1267;96482;-66
2024/01/28 09:32:11;;;;;;;4.50;2.70;;;;;;;8.80;74.43;102018.47;102301;1273;137949;-66
2024/01/28 09:34:38;;;;;;;4.70;3.20;;;;;;;8.54;74.78;102027.04;102400;1267;96496;-66
2024/01/28 09:37:07;;;;;;;3.60;2.30;;;;;;;8.35;75.49;102027.96;102422;1270;109920;-67
2024/01/28 09:39:34;;;;;;;12.40;8.60;;;;;;;8.26;76.08;102032.59;102463;1268;138923;-66
2024/01/28 09:42:12;;;;;;;21.90;14.70;;;;;;;8.27;76.62;102032.24;102382;1267;97106;-66
2024/01/28 09:44:39;;;;;;;5.30;3.00;;;;;;;8.30;76.76;102030.35;102268;1267;139032;-67
2024/01/28 09:47:07;;;;;;;4.70;2.30;;;;;;;8.24;76.47;102030.47;102333;1268;96497;-67
2024/01/28 09:49:39;;;;;;;4.50;2.50;;;;;;;8.16;76.58;102027.14;102562;1267;137608;-66
2024/01/28 09:52:10;;;;;;;4.90;2.30;;;;;;;8.07;76.59;102023.10;102483;1268;107899;-67
2024/01/28 09:54:37;;;;;;;4.20;2.60;;;;;;;8.01;76.84;102027.90;101883;1267;1002846;-65
2024/01/28 09:57:05;;;;;;;5.10;2.80;;;;;;;7.97;77.10;102028.05;102197;1271;137977;-66
2024/01/28 09:59:34;;;;;;;7.00;2.60;;;;;;;7.86;77.03;102032.30;103398;1270;95958;-65
2024/01/28 10:02:02;;;;;;;3.60;2.40;;;;;;;7.73;77.20;102034.12;102322;1267;137705;-65
2024/01/28 10:04:29;;;;;;;6.60;2.50;;;;;;;7.67;77.49;102036.98;102689;1273;108148;-65
2024/01/28 10:06:57;;;;;;;5.40;2.30;;;;;;;7.64;77.82;102039.91;102334;1273;96474;-68
2024/01/28 10:09:25;;;;;;;4.00;2.20;;;;;;;7.57;77.85;102042.13;102352;1269;137936;-67
2024/01/28 10:11:52;;;;;;;4.30;2.50;;;;;;;7.54;78.09;102038.61;102438;1272;96393;-67
2024/01/28 10:14:19;;;;;;;6.00;2.70;;;;;;;7.49;78.09;102042.72;102246;1267;138112;-67
2024/01/28 10:16:48;;;;;;;4.30;2.70;;;;;;;7.42;78.25;102038.69;102468;1270;107611;-66
2024/01/28 10:19:15;;;;;;;6.00;2.60;;;;;;;7.38;78.28;102038.83;102441;1272;96347;-67
2024/01/28 10:21:43;;;;;;;4.70;2.70;;;;;;;7.33;78.47;102039.62;102230;1273;137234;-68
2024/01/28 10:24:12;;;;;;;6.60;3.40;;;;;;;7.28;78.53;102041.48;102418;1273;96366;-68
2024/01/28 10:26:39;;;;;;;7.20;3.80;;;;;;;7.17;78.72;102040.52;102358;1267;137371;-68
2024/01/28 10:29:08;;;;;;;7.30;4.50;;;;;;;7.15;79.20;102043.23;102493;1273;109127;-69
2024/01/28 10:31:35;;;;;;;9.50;5.20;;;;;;;7.10;79.40;102046.31;102350;1271;137790;-68
2024/01/28 10:34:02;;;;;;;8.90;4.90;;;;;;;7.01;79.64;102045.87;102495;1268;107532;-66
2024/01/28 10:36:32;;;;;;;5.90;4.40;;;;;;;6.94;80.00;102045.79;102536;1270;96599;-68
2024/01/28 10:39:05;;;;;;;6.80;3.90;;;;;;;6.86;80.09;102047.60;102283;1271;138201;-69
2024/01/28 10:41:33;;;;;;;5.70;4.10;;;;;;;6.78;80.39;102050.44;102829;1267;107201;-68
2024/01/28 10:44:06;;;;;;;6.90;4.20;;;;;;;6.66;80.13;102053.74;102369;1273;138771;-67
2024/01/28 10:46:36;;;;;;;5.90;3.40;;;;;;;6.54;80.31;102057.73;102586;1273;109077;-67
2024/01/28 10:49:06;;;;;;;5.60;4.10;;;;;;;6.41;80.59;102057.56;102600;1272;96535;-68
2024/01/28 10:51:35;;;;;;;7.70;4.70;;;;;;;6.32;81.12;102055.89;102486;1273;137848;-69
2024/01/28 10:54:04;;;;;;;8.00;4.40;;;;;;;6.32;81.19;102059.02;102381;1271;107518;-67
2024/01/28 10:56:31;;;;;;;7.10;4.90;;;;;;;6.26;81.22;102056.47;102688;1273;138388;-68
2024/01/28 10:59:00;;;;;;;9.90;5.00;;;;;;;6.21;81.59;102061.07;102448;1272;107482;-66
2024/01/28 11:01:27;;;;;;;8.60;4.50;;;;;;;6.19;81.82;102066.76;102409;1273;96571;-67
2024/01/28 11:03:54;;;;;;;7.40;5.00;;;;;;;6.17;81.99;102067.94;102407;1270;109522;-68
2024/01/28 11:06:21;;;;;;;7.20;4.60;;;;;;;6.12;81.96;102068.38;102361;1270;107127;-68
2024/01/28 11:08:49;;;;;;;5.50;4.20;;;;;;;6.10;82.34;102066.59;102369;1270;138237;-67
2024/01/28 11:11:16;;;;;;;9.20;5.00;;;;;;;6.08;82.46;102063.29;102430;1269;107705;-67
2024/01/28 11:13:46;;;;;;;9.60;4.80;;;;;;;6.09;82.67;102071.25;102374;1271;138474;-68
2024/01/28 11:16:15;;;;;;;6.00;4.80;;;;;;;6.05;82.72;102069.48;102406;1271;109207;-68
2024/01/28 11:18:42;;;;;;;9.80;5.50;;;;;;;6.05;82.87;102062.91;103595;1270;107899;-67